Data for 12/26/2008

Time Sea-Level Adjusted Pressure Absolute Pressure Temperature Relative Humidity Dew Point   
(mb) (inHg) (mb) (inHg) (C) (F) (%) (C) (F)
00:05 1001 29.56 830 24.51 -7.9 17.8 93 -8.9 15.9
00:10 1001 29.56 830 24.51 -7.9 17.7 93 -8.9 16
00:15 1001 29.56 830 24.51 -8 17.7 93 -8.9 16
00:20 1001 29.56 830 24.51 -8 17.6 93 -9 15.8
00:25 1001 29.56 830 24.51 -8 17.5 93 -9 15.8
00:30 1001 29.56 830 24.51 -8 17.6 92 -9.1 15.6
00:35 1001 29.56 830 24.51 -8.2 17.3 92 -9.2 15.4
00:40 1001 29.56 830 24.51 -8.2 17.2 93 -9.1 15.6
00:45 1001 29.56 830 24.51 -8.1 17.3 92 -9.2 15.5
00:50 1001 29.56 830 24.51 -8.1 17.3 92 -9.2 15.4
00:55 1001 29.56 830 24.51 -8.2 17.2 93 -9.2 15.4
01:00 1001 29.56 830 24.51 -8.2 17.2 92 -9.3 15.3
01:05 1001 29.56 830 24.51 -8.2 17.2 93 -9.2 15.4
01:10 1001 29.56 830 24.51 -8.2 17.2 93 -9.2 15.4
01:15 1001 29.56 830 24.51 -8.3 17.1 93 -9.2 15.4
01:20 1001 29.56 830 24.51 -8.3 17.1 93 -9.3 15.2
01:25 1001 29.56 830 24.51 -8.4 16.9 93 -9.4 15.1
01:30 1001 29.56 831 24.54 -8.3 17 92 -9.4 15.2
01:35 1002 29.59 831 24.54 -8.4 16.9 92 -9.5 15
01:40 1002 29.59 831 24.54 -8.4 16.8 92 -9.5 14.9
01:45 1002 29.59 831 24.54 -8.5 16.7 92 -9.6 14.8
01:50 1002 29.59 831 24.54 -8.6 16.5 92 -9.7 14.6
01:55 1002 29.59 831 24.54 -8.6 16.5 93 -9.6 14.7
02:00 1002 29.59 831 24.54 -8.6 16.5 92 -9.7 14.6
02:05 1002 29.59 831 24.54 -8.7 16.4 92 -9.7 14.6
02:10 1002 29.59 831 24.54 -8.6 16.5 92 -9.7 14.6
02:15 1002 29.59 832 24.57 -8.7 16.4 93 -9.6 14.7
02:20 1002 29.59 832 24.57 -8.7 16.3 92 -9.7 14.5
02:25 1002 29.59 832 24.57 -8.8 16.3 92 -9.8 14.4
02:30 1003 29.62 832 24.57 -8.8 16.2 92 -9.8 14.3
02:35 1003 29.62 832 24.57 -8.9 16 92 -9.9 14.1
02:40 1003 29.62 832 24.57 -8.9 16 92 -9.9 14.1
02:45 1003 29.62 832 24.57 -8.9 16 92 -10 14
02:50 1003 29.62 832 24.57 -9 15.8 92 -10.1 13.8
02:55 1003 29.62 832 24.57 -9.1 15.6 91 -10.3 13.4
03:00 1003 29.62 832 24.57 -9.3 15.2 91 -10.5 13
03:05 1003 29.62 832 24.57 -9.5 15 91 -10.6 12.9
03:10 1003 29.62 832 24.57 -9.5 14.9 91 -10.7 12.7
03:15 1003 29.62 832 24.57 -9.5 14.9 91 -10.7 12.8
03:20 1003 29.62 832 24.57 -9.6 14.8 91 -10.7 12.7
03:25 1003 29.62 832 24.57 -9.6 14.7 91 -10.8 12.6
03:30 1003 29.62 832 24.57 -9.6 14.7 91 -10.8 12.6
03:35 1003 29.62 832 24.57 -9.7 14.6 92 -10.8 12.6
03:40 1003 29.62 833 24.6 -9.7 14.6 91 -10.8 12.5
03:45 1004 29.65 833 24.6 -9.7 14.6 92 -10.8 12.6
03:50 1004 29.65 833 24.6 -9.7 14.6 91 -10.9 12.4
03:55 1004 29.65 833 24.6 -9.7 14.6 91 -10.8 12.5
04:00 1004 29.65 833 24.6 -9.6 14.6 91 -10.8 12.5
04:05 1004 29.65 833 24.6 -9.7 14.6 92 -10.8 12.6
04:10 1004 29.65 833 24.6 -9.7 14.6 92 -10.8 12.6
04:15 1004 29.65 833 24.6 -9.7 14.6 92 -10.8 12.6
04:20 1004 29.65 833 24.6 -9.7 14.6 92 -10.8 12.6
04:25 1004 29.65 833 24.6 -9.7 14.6 91 -10.8 12.5
04:30 1004 29.65 833 24.6 -9.7 14.6 91 -10.9 12.4
04:35 1004 29.65 833 24.6 -9.7 14.6 92 -10.8 12.6
04:40 1004 29.65 834 24.63 -9.7 14.6 92 -10.8 12.5
04:45 1004 29.65 834 24.63 -9.7 14.6 91 -10.8 12.5
04:50 1005 29.68 834 24.63 -9.7 14.5 91 -11 12.2
04:55 1005 29.68 834 24.63 -9.8 14.3 91 -11 12.1
05:00 1005 29.68 834 24.63 -9.8 14.3 92 -11 12.3
05:05 1004 29.65 834 24.63 -9.8 14.4 91 -11 12.3
05:10 1005 29.68 834 24.63 -9.8 14.4 91 -10.9 12.3
05:15 1005 29.68 834 24.63 -9.8 14.4 91 -11 12.2
05:20 1005 29.68 834 24.63 -9.8 14.3 91 -11 12.2
05:25 1005 29.68 834 24.63 -9.9 14.2 91 -11.1 12
05:30 1005 29.68 834 24.63 -9.9 14.2 91 -11.1 12.1
05:35 1005 29.68 834 24.63 -9.9 14.2 91 -11.1 11.9
05:40 1005 29.68 834 24.63 -10 14.1 91 -11.2 11.9
05:45 1005 29.68 834 24.63 -10 14 90 -11.3 11.7
05:50 1005 29.68 835 24.66 -10 13.9 91 -11.2 11.8
05:55 1005 29.68 835 24.66 -10 14.1 91 -11.2 11.8
06:00 1005 29.68 835 24.66 -10 14.1 91 -11.2 11.9
06:05 1006 29.71 835 24.66 -9.9 14.1 91 -11.1 12
06:10 1006 29.71 835 24.66 -9.9 14.1 91 -11.2 11.8
06:15 1006 29.71 835 24.66 -9.9 14.1 91 -11.1 12
06:20 1006 29.71 835 24.66 -9.9 14.2 91 -11.1 12
06:25 1006 29.71 835 24.66 -9.9 14.2 91 -11.1 11.9
06:30 1006 29.71 835 24.66 -9.9 14.1 91 -11.2 11.9
06:35 1006 29.71 835 24.66 -9.9 14.1 91 -11.1 11.9
06:40 1006 29.71 835 24.66 -9.9 14.1 91 -11.1 11.9
06:45 1006 29.71 835 24.66 -10 14.1 91 -11.2 11.9
06:50 1006 29.71 836 24.69 -10 14.1 91 -11.2 11.9
06:55 1006 29.71 836 24.69 -10 14.1 91 -11.2 11.8
07:00 1007 29.74 836 24.69 -10 14.1 91 -11.2 11.8
07:05 1007 29.74 836 24.69 -10 14 91 -11.3 11.7
07:10 1007 29.74 836 24.69 -10.1 13.9 91 -11.3 11.7
07:15 1007 29.74 836 24.69 -10.1 13.9 91 -11.3 11.7
07:20 1007 29.74 836 24.69 -10 14 91 -11.2 11.8
07:25 1007 29.74 836 24.69 -10 14 91 -11.2 11.8
07:30 1007 29.74 836 24.69 -10 14 91 -11.2 11.8
07:35 1007 29.74 836 24.69 -10 14.1 91 -11.2 11.9
07:40 1007 29.74 836 24.69 -9.9 14.1 91 -11.2 11.8
07:45 1007 29.74 837 24.72 -9.9 14.1 91 -11.1 11.9
07:50 1007 29.74 837 24.72 -10 14.1 91 -11.2 11.9
07:55 1007 29.74 837 24.72 -10 14.1 91 -11.2 11.8
08:00 1008 29.77 837 24.72 -10 14 90 -11.3 11.7
08:05 1008 29.77 837 24.72 -10.1 13.9 91 -11.3 11.6
08:10 1008 29.77 837 24.72 -10.1 13.9 91 -11.3 11.6
08:15 1008 29.77 837 24.72 -10.1 13.9 91 -11.3 11.6
08:20 1008 29.77 837 24.72 -10.1 13.9 91 -11.3 11.7
08:25 1008 29.77 837 24.72 -10 14 90 -11.3 11.6
08:30 1008 29.77 837 24.72 -10.1 13.9 90 -11.4 11.5
08:35 1008 29.77 837 24.72 -10 13.9 90 -11.4 11.5
08:40 1008 29.77 838 24.75 -10 14 90 -11.4 11.5
08:45 1008 29.77 838 24.75 -10 14 90 -11.3 11.6
08:50 1008 29.77 838 24.75 -9.9 14.1 89 -11.3 11.6
08:55 1008 29.77 838 24.75 -9.9 14.2 89 -11.4 11.5
09:00 1009 29.8 838 24.75 -9.8 14.3 89 -11.4 11.6
09:05 1009 29.8 838 24.75 -9.8 14.3 89 -11.3 11.6
09:10 1009 29.8 838 24.75 -9.8 14.4 89 -11.3 11.7
09:15 1009 29.8 838 24.75 -9.8 14.5 89 -11.2 11.8
09:20 1009 29.8 838 24.75 -9.7 14.5 88 -11.4 11.5
09:25 1009 29.8 838 24.75 -9.8 14.4 88 -11.4 11.5
09:30 1009 29.8 838 24.75 -9.9 14.3 88 -11.5 11.2
09:35 1009 29.8 838 24.75 -9.9 14.1 86 -11.9 10.6
09:40 1009 29.8 838 24.75 -10.1 13.9 88 -11.7 10.9
09:45 1009 29.8 838 24.75 -10 13.9 86 -12 10.4
09:50 1009 29.8 839 24.78 -10.2 13.7 87 -12 10.5
09:55 1010 29.83 839 24.78 -10 14 88 -11.6 11.1
10:00 1010 29.83 839 24.78 -9.7 14.6 87 -11.4 11.4
10:05 1010 29.83 839 24.78 -9.5 14.9 86 -11.5 11.3
10:10 1010 29.83 839 24.78 -9.4 15.2 86 -11.3 11.6
10:15 1010 29.83 839 24.78 -9.3 15.4 85 -11.3 11.7
10:20 1010 29.83 839 24.78 -9.3 15.2 85 -11.4 11.4
10:25 1010 29.83 839 24.78 -9.3 15.3 83 -11.6 11.1
10:30 1010 29.83 839 24.78 -9.3 15.3 84 -11.5 11.4
10:35 1010 29.83 839 24.78 -9.2 15.5 83 -11.6 11.2
10:40 1010 29.83 839 24.78 -9.1 15.7 83 -11.5 11.3
10:45 1010 29.83 839 24.78 -9 15.8 82 -11.5 11.3
10:50 1010 29.83 839 24.78 -9 15.8 81 -11.7 11
10:55 1010 29.83 839 24.78 -9.1 15.6 83 -11.5 11.3
11:00 1010 29.83 839 24.78 -9 15.8 79 -12 10.5
11:05 1010 29.83 839 24.78 -9 15.7 80 -11.9 10.5
11:10 1010 29.83 839 24.78 -9 15.8 79 -12 10.4
11:15 1010 29.83 839 24.78 -8.8 16.2 80 -11.7 10.9
11:20 1010 29.83 839 24.78 -8.6 16.6 79 -11.5 11.3
11:25 1010 29.83 839 24.78 -8.4 16.9 78 -11.6 11.1
11:30 1010 29.83 839 24.78 -8.3 17 81 -11 12.2
11:35 1010 29.83 839 24.78 -8 17.7 76 -11.6 11.2
11:40 1010 29.83 839 24.78 -8.1 17.5 77 -11.4 11.5
11:45 1010 29.83 839 24.78 -8 17.7 76 -11.6 11.2
11:50 1010 29.83 839 24.78 -8 17.7 76 -11.5 11.2
11:55 1010 29.83 839 24.78 -7.9 17.7 74 -11.9 10.7
12:00 1010 29.83 839 24.78 -8.2 17.2 76 -11.7 10.9
12:05 1010 29.83 839 24.78 -8.5 16.8 75 -12.1 10.2
12:10 1010 29.83 839 24.78 -8.6 16.5 76 -12.1 10.1
12:15 1010 29.83 839 24.78 -8.6 16.6 74 -12.5 9.6
12:20 1010 29.83 839 24.78 -8.7 16.4 73 -12.6 9.3
12:25 1010 29.83 839 24.78 -8.6 16.4 74 -12.5 9.5
12:30 1010 29.83 839 24.78 -8.2 17.2 73 -12.2 10.1
12:35 1010 29.83 839 24.78 -8.1 17.5 72 -12.2 10
12:40 1010 29.83 839 24.78 -8 17.7 72 -12.1 10.2
12:45 1010 29.83 839 24.78 -7.9 17.7 72 -12.2 10
12:50 1010 29.83 839 24.78 -7.9 17.8 73 -12 10.4
12:55 1010 29.83 839 24.78 -8 17.7 72 -12.1 10.2
13:00 1010 29.83 839 24.78 -8.4 17 73 -12.4 9.7
13:05 1010 29.83 840 24.81 -9.2 15.5 75 -12.9 8.8
13:10 1010 29.83 839 24.78 -9.5 14.9 76 -13 8.6
13:15 1010 29.83 839 24.78 -9.2 15.5 74 -12.9 8.7
13:20 1010 29.83 839 24.78 -9.3 15.3 75 -13 8.6
13:25 1010 29.83 839 24.78 -10.1 13.8 77 -13.4 7.8
13:30 1010 29.83 839 24.78 -10.2 13.6 78 -13.4 7.9
13:35 1010 29.83 839 24.78 -10 14.1 76 -13.5 7.8
13:40 1010 29.83 839 24.78 -9.7 14.5 76 -13.2 8.3
13:45 1010 29.83 839 24.78 -9.4 15 75 -13.1 8.5
13:50 1010 29.83 839 24.78 -9 15.9 72 -13.2 8.2
13:55 1010 29.83 840 24.81 -8.6 16.5 69 -13.3 8
14:00 1010 29.83 840 24.81 -8.5 16.8 69 -13.1 8.4
14:05 1010 29.83 840 24.81 -8.2 17.2 68 -13.1 8.4
14:10 1010 29.83 840 24.81 -8.1 17.5 68 -13.1 8.5
14:15 1010 29.83 840 24.81 -8.2 17.2 69 -12.9 8.8
14:20 1010 29.83 840 24.81 -8.4 17 71 -12.7 9.1
14:25 1010 29.83 840 24.81 -8.2 17.3 70 -12.7 9.1
14:30 1010 29.83 840 24.81 -8.3 17.1 70 -12.9 8.8
14:35 1011 29.85 840 24.81 -8.4 16.9 71 -12.9 8.9
14:40 1011 29.85 840 24.81 -8.4 17 70 -12.8 8.9
14:45 1011 29.85 840 24.81 -8.7 16.4 71 -13 8.6
14:50 1011 29.85 840 24.81 -8.5 16.6 71 -13 8.7
14:55 1011 29.85 840 24.81 -8.4 16.9 69 -13.1 8.5
15:00 1011 29.85 840 24.81 -8.1 17.5 69 -12.8 9
15:05 1011 29.85 840 24.81 -7.9 17.8 68 -12.8 8.9
15:10 1011 29.85 840 24.81 -7.9 17.8 66 -13.1 8.5
15:15 1011 29.85 840 24.81 -7.5 18.6 65 -12.9 8.8
15:20 1011 29.85 840 24.81 -7.2 19 65 -12.6 9.3
15:25 1011 29.85 840 24.81 -7.5 18.4 65 -13 8.6
15:30 1011 29.85 840 24.81 -7.9 17.8 67 -13 8.7
15:35 1011 29.85 840 24.81 -8 17.7 66 -13.2 8.3
15:40 1011 29.85 840 24.81 -8 17.6 67 -13 8.5
15:45 1011 29.85 840 24.81 -8 17.7 68 -12.9 8.7
15:50 1011 29.85 840 24.81 -8 17.6 69 -12.8 8.9
15:55 1011 29.85 840 24.81 -8 17.6 68 -12.9 8.8
16:00 1011 29.85 840 24.81 -8 17.7 68 -12.9 8.8
16:05 1011 29.85 840 24.81 -8 17.7 68 -12.8 8.9
16:10 1011 29.85 841 24.83 -8 17.6 69 -12.8 8.9
16:15 1011 29.85 841 24.83 -7.9 17.8 67 -13 8.6
16:20 1011 29.85 841 24.83 -8.2 17.3 69 -12.9 8.7
16:25 1011 29.85 841 24.83 -8.2 17.2 68 -13.1 8.4
16:30 1011 29.85 841 24.83 -8.2 17.3 68 -13 8.6
16:35 1011 29.85 841 24.83 -8.4 16.9 69 -13.1 8.4
16:40 1012 29.88 841 24.83 -9.6 14.7 74 -13.5 7.7
16:45 1012 29.88 841 24.83 -9.8 14.3 73 -13.8 7.2
16:50 1012 29.88 841 24.83 -9.5 14.8 73 -13.5 7.6
16:55 1012 29.88 841 24.83 -9.4 15.1 72 -13.5 7.6
17:00 1012 29.88 841 24.83 -9.3 15.3 73 -13.3 8.1
17:05 1012 29.88 841 24.83 -9.3 15.3 72 -13.4 7.9
17:10 1012 29.88 841 24.83 -9.3 15.2 72 -13.5 7.8
17:15 1012 29.88 841 24.83 -9.5 15 73 -13.5 7.7
17:20 1012 29.88 841 24.83 -9.7 14.6 74 -13.5 7.7
17:25 1012 29.88 841 24.83 -9.6 14.6 72 -13.7 7.3
17:30 1012 29.88 841 24.83 -9.7 14.6 73 -13.6 7.5
17:35 1012 29.88 841 24.83 -9.7 14.5 72 -14 6.9
17:40 1012 29.88 841 24.83 -9.6 14.8 71 -13.9 7
17:45 1012 29.88 841 24.83 -9.6 14.6 71 -14 6.8
17:50 1012 29.88 841 24.83 -10 14 73 -14 6.8
17:55 1012 29.88 841 24.83 -10.4 13.3 74 -14.1 6.6
18:00 1012 29.88 841 24.83 -10.3 13.6 73 -14.1 6.6
18:05 1012 29.88 841 24.83 -10.1 13.8 73 -14.1 6.6
18:10 1012 29.88 841 24.83 -9.9 14.1 72 -14.1 6.5
18:15 1012 29.88 842 24.86 -9.8 14.3 71 -14.1 6.6
18:20 1012 29.88 842 24.86 -9.7 14.5 71 -14.1 6.6
18:25 1012 29.88 842 24.86 -9.5 14.9 68 -14.3 6.2
18:30 1012 29.88 842 24.86 -9.5 14.8 70 -14.1 6.6
18:35 1012 29.88 842 24.86 -9.5 14.8 67 -14.5 5.9
18:40 1012 29.88 842 24.86 -9.5 14.9 65 -15 5
18:45 1012 29.88 842 24.86 -9.5 14.9 65 -14.9 5.2
18:50 1013 29.91 842 24.86 -9.5 14.8 63 -15.4 4.2
18:55 1013 29.91 842 24.86 -9.5 14.9 64 -15.2 4.6
19:00 1013 29.91 842 24.86 -9.6 14.8 66 -14.8 5.3
19:05 1013 29.91 842 24.86 -9.8 14.4 64 -15.4 4.2
19:10 1013 29.91 842 24.86 -9.8 14.3 65 -15.2 4.6
19:15 1013 29.91 842 24.86 -9.8 14.3 66 -15.1 4.9
19:20 1013 29.91 842 24.86 -10 14.1 66 -15.2 4.7
19:25 1013 29.91 842 24.86 -10 14 66 -15.2 4.6
19:30 1013 29.91 842 24.86 -10 14 66 -15.2 4.6
19:35 1013 29.91 842 24.86 -9.9 14.2 66 -15.1 4.9
19:40 1013 29.91 842 24.86 -10 14.1 67 -15 5.1
19:45 1013 29.91 842 24.86 -10.1 13.8 66 -15.3 4.4
19:50 1013 29.91 842 24.86 -10 14 66 -15.3 4.5
19:55 1013 29.91 842 24.86 -10.1 13.9 66 -15.4 4.3
20:00 1013 29.91 842 24.86 -10.2 13.6 65 -15.5 4
20:05 1013 29.91 842 24.86 -10.4 13.3 66 -15.7 3.8
20:10 1013 29.91 842 24.86 -10.8 12.6 65 -16.1 2.9
20:15 1013 29.91 842 24.86 -11.3 11.6 66 -16.5 2.3
20:20 1013 29.91 842 24.86 -11.6 11.1 66 -16.8 1.8
20:25 1013 29.91 842 24.86 -12.1 10.3 69 -16.7 2
20:30 1013 29.91 842 24.86 -12 10.3 68 -16.7 1.9
20:35 1013 29.91 842 24.86 -11.7 11 67 -16.6 2.2
20:40 1013 29.91 842 24.86 -11.7 11 67 -16.6 2.1
20:45 1013 29.91 842 24.86 -11.4 11.4 66 -16.6 2.2
20:50 1013 29.91 842 24.86 -11.4 11.5 66 -16.5 2.3
20:55 1013 29.91 842 24.86 -11.7 11 66 -16.8 1.7
21:00 1013 29.91 842 24.86 -11.8 10.7 67 -16.9 1.7
21:05 1013 29.91 842 24.86 -11.9 10.5 66 -17.1 1.2
21:10 1013 29.91 842 24.86 -12.1 10.3 66 -17.3 0.9
21:15 1013 29.91 842 24.86 -12.3 9.8 73 -16.3 2.7
21:20 1013 29.91 842 24.86 -12.6 9.3 70 -17 1.4
21:25 1013 29.91 842 24.86 -12.5 9.4 70 -16.9 1.5
21:30 1013 29.91 842 24.86 -12.3 9.9 67 -17.2 1.1
21:35 1013 29.91 842 24.86 -12 10.4 66 -17.1 1.3
21:40 1013 29.91 842 24.86 -12.2 10 67 -17.2 1.1
21:45 1013 29.91 842 24.86 -12.3 9.9 67 -17.3 0.9
21:50 1013 29.91 842 24.86 -12.7 9.2 67 -17.6 0.3
21:55 1013 29.91 842 24.86 -13.1 8.5 69 -17.7 0.2
22:00 1013 29.91 842 24.86 -13.7 7.3 72 -17.8 -0
22:05 1013 29.91 842 24.86 -14.2 6.5 72 -18.2 -0.7
22:10 1013 29.91 843 24.89 -14.2 6.5 72 -18.2 -0.8
22:15 1013 29.91 843 24.89 -13.6 7.5 74 -17.3 0.8
22:20 1013 29.91 842 24.86 -13.1 8.5 69 -17.6 0.4
22:25 1013 29.91 842 24.86 -12.8 9 70 -17.1 1.2
22:30 1013 29.91 842 24.86 -12.9 8.9 74 -16.5 2.3
22:35 1013 29.91 842 24.86 -12.9 8.8 71 -17 1.3
22:40 1013 29.91 842 24.86 -13 8.6 68 -17.7 0.1
22:45 1013 29.91 842 24.86 -13.2 8.2 68 -17.9 -0.2
22:50 1013 29.91 842 24.86 -12.6 9.4 67 -17.5 0.4
22:55 1013 29.91 842 24.86 -12.6 9.3 66 -17.8 0
23:00 1013 29.91 842 24.86 -13 8.6 70 -17.3 0.9
23:05 1013 29.91 842 24.86 -13.8 7.1 73 -17.6 0.3
23:10 1013 29.91 842 24.86 -13.7 7.3 79 -16.7 1.9
23:15 1013 29.91 842 24.86 -13.4 7.8 71 -17.7 0.1
23:20 1013 29.91 842 24.86 -12.5 9.5 66 -17.6 0.3
23:25 1013 29.91 842 24.86 -12.5 9.4 66 -17.6 0.3
23:30 1013 29.91 842 24.86 -12.6 9.3 66 -17.8 -0
23:35 1013 29.91 842 24.86 -12.5 9.6 66 -17.6 0.4
23:40 1013 29.91 842 24.86 -12.5 9.5 66 -17.5 0.5
23:45 1013 29.91 842 24.86 -13 8.6 67 -18 -0.3
23:50 1013 29.91 842 24.86 -14.8 5.4 75 -18.3 -1
23:55 1013 29.91 842 24.86 -14.3 6.4 73 -18 -0.4
24:00 1013 29.91 842 24.86 -13.9 7 75 -17.4 0.6